Time;durP1;ratioP1;P1;durP2;ratioP2;P2;SDS_P1;SDS_P2;PMS_P1;PMS_P2;Temp;Humidity;BMP_temperature;BMP_pressure;BME280_temperature;BME280_humidity;BME280_pressure;Samples;Min_cycle;Max_cycle;Signal;HPM_P1;HPM_P2
2023/10/09 00:03:04;;;;;;;8.90;4.30;;;;;;;9.67;100.00;101216.22;5075859;28;20025;-76
2023/10/09 00:05:52;;;;;;;9.80;4.70;;;;;;;9.62;100.00;101227.41;5074451;28;20347;-75
2023/10/09 00:08:30;;;;;;;9.85;4.35;;;;;;;9.54;100.00;101218.34;5075588;28;20032;-74
2023/10/09 00:11:19;;;;;;;9.43;4.15;;;;;;;9.48;100.00;101207.97;5075886;28;20031;-75
2023/10/09 00:13:57;;;;;;;11.65;3.92;;;;;;;9.40;100.00;101212.31;5075958;28;20020;-75
2023/10/09 00:16:32;;;;;;;8.15;4.47;;;;;;;9.36;100.00;101205.94;5074198;28;20444;-75
2023/10/09 00:19:19;;;;;;;8.23;4.07;;;;;;;9.33;100.00;101186.94;5075552;28;20020;-75
2023/10/09 00:22:11;;;;;;;11.70;3.97;;;;;;;9.29;100.00;101178.50;5060495;28;20048;-75
2023/10/09 00:24:45;;;;;;;9.45;3.95;;;;;;;9.26;100.00;101188.78;5074123;28;20035;-75
2023/10/09 00:27:19;;;;;;;8.05;3.95;;;;;;;9.23;100.00;101184.00;5075586;28;20389;-75
2023/10/09 00:29:45;;;;;;;6.75;3.88;;;;;;;9.19;100.00;101180.47;5074448;28;20077;-75
2023/10/09 00:34:58;;;;;;;10.85;4.03;;;;;;;9.13;100.00;101164.41;5075745;28;20025;-74
2023/10/09 00:37:26;;;;;;;6.78;3.80;;;;;;;9.10;100.00;101162.50;5075530;28;20031;-75
2023/10/09 00:40:27;;;;;;;7.57;3.60;;;;;;;9.04;100.00;101173.69;5057633;28;20335;-73
2023/10/09 00:42:55;;;;;;;8.02;3.90;;;;;;;8.98;100.00;101158.44;5055564;28;20369;-74
2023/10/09 00:45:32;;;;;;;7.75;3.90;;;;;;;8.97;100.00;101171.09;5053471;28;20021;-75
2023/10/09 00:47:59;;;;;;;6.15;3.50;;;;;;;8.95;100.00;101182.16;5055466;28;20017;-74
2023/10/09 00:50:25;;;;;;;6.80;3.45;;;;;;;8.97;100.00;101185.34;5054128;28;20082;-74
2023/10/09 00:53:01;;;;;;;4.88;3.22;;;;;;;8.97;100.00;101185.34;5052728;28;20025;-73
2023/10/09 00:55:38;;;;;;;8.55;3.60;;;;;;;9.02;100.00;101175.41;5053858;28;20099;-76
2023/10/09 00:58:12;;;;;;;8.15;3.47;;;;;;;9.05;100.00;101177.34;5053196;28;20048;-76
2023/10/09 01:08:55;;;;;;;5.65;3.35;;;;;;;9.15;100.00;101156.22;5053931;28;20029;-74
2023/10/09 01:11:23;;;;;;;7.43;4.53;;;;;;;9.17;100.00;101153.69;5053296;28;20033;-75
2023/10/09 01:13:59;;;;;;;4.40;2.75;;;;;;;9.19;100.00;101148.31;5054147;28;20451;-75
2023/10/09 01:16:31;;;;;;;9.23;3.42;;;;;;;9.19;100.00;101145.47;5053515;28;20112;-74
2023/10/09 01:19:12;;;;;;;7.53;3.42;;;;;;;9.19;100.00;101156.88;5053111;28;20056;-74
2023/10/09 01:21:45;;;;;;;4.97;2.67;;;;;;;9.17;100.00;101142.28;5053366;28;20044;-77
2023/10/09 01:24:10;;;;;;;5.93;2.88;;;;;;;9.16;100.00;101137.81;5053329;28;20029;-75
2023/10/09 01:26:46;;;;;;;5.72;3.00;;;;;;;9.15;100.00;101134.16;5052657;28;20033;-76
2023/10/09 01:29:35;;;;;;;7.72;3.25;;;;;;;9.14;100.00;101131.81;5053134;28;20028;-75
2023/10/09 01:32:03;;;;;;;4.30;2.55;;;;;;;9.00;100.00;101106.66;5050844;28;20044;-74
2023/10/09 01:37:31;;;;;;;7.88;3.55;;;;;;;9.13;100.00;101136.72;5051645;28;20032;-76
2023/10/09 01:39:59;;;;;;;7.35;4.45;;;;;;;9.15;100.00;101119.16;5052033;28;20136;-75
2023/10/09 01:42:34;;;;;;;10.27;4.03;;;;;;;9.12;100.00;101114.34;5034533;28;20039;-74
2023/10/09 01:45:27;;;;;;;9.70;3.88;;;;;;;9.17;100.00;101128.00;5051914;28;20095;-76
2023/10/09 01:48:04;;;;;;;5.95;3.40;;;;;;;9.16;100.00;101124.38;5038318;28;20112;-75
2023/10/09 01:50:35;;;;;;;8.40;3.13;;;;;;;9.15;100.00;101122.75;5052901;28;20060;-75
2023/10/09 01:53:02;;;;;;;5.68;3.03;;;;;;;9.16;100.00;101115.81;5053330;28;20535;-75
2023/10/09 01:55:45;;;;;;;7.25;3.78;;;;;;;9.16;100.00;101101.56;5052088;28;20087;-76
2023/10/09 02:01:07;;;;;;;10.07;3.60;;;;;;;9.20;100.00;101104.25;5052042;28;20041;-75
2023/10/09 02:03:38;;;;;;;6.85;3.30;;;;;;;9.23;100.00;101091.94;5053225;28;20040;-77
2023/10/09 02:06:05;;;;;;;10.50;3.70;;;;;;;9.24;100.00;101088.63;5053252;28;20025;-75
2023/10/09 02:08:36;;;;;;;6.03;3.00;;;;;;;9.28;100.00;101082.78;5052405;28;20033;-76
2023/10/09 02:11:02;;;;;;;9.25;4.50;;;;;;;9.29;100.00;101083.59;5054178;28;20095;-75
2023/10/09 02:13:31;;;;;;;4.75;2.90;;;;;;;9.34;100.00;101083.00;5051629;28;20028;-75
2023/10/09 02:16:28;;;;;;;8.60;3.33;;;;;;;9.38;100.00;101066.53;5051700;28;20032;-74
2023/10/09 02:18:58;;;;;;;7.03;3.63;;;;;;;9.27;100.00;101033.50;5052486;28;20418;-76
2023/10/09 02:24:49;;;;;;;6.07;2.92;;;;;;;9.42;100.00;101038.66;5051767;28;20113;-76
2023/10/09 02:27:19;;;;;;;6.90;2.70;;;;;;;9.40;100.00;101024.84;5053014;28;20083;-76
2023/10/09 02:29:49;;;;;;;8.43;3.17;;;;;;;9.38;100.00;101023.75;5053264;28;20025;-75
2023/10/09 02:32:24;;;;;;;7.07;3.13;;;;;;;9.35;100.00;101011.19;5053130;28;20086;-75
2023/10/09 02:34:53;;;;;;;7.13;2.75;;;;;;;9.37;100.00;101014.41;5052971;28;20028;-74
2023/10/09 02:37:25;;;;;;;5.03;2.97;;;;;;;9.36;100.00;101009.94;5052649;28;20494;-76
2023/10/09 02:39:53;;;;;;;7.63;2.80;;;;;;;9.34;100.00;101014.53;5053016;28;20090;-75
2023/10/09 02:42:26;;;;;;;5.45;2.42;;;;;;;9.33;100.00;101010.09;5052775;28;20044;-75
2023/10/09 02:44:53;;;;;;;4.13;2.20;;;;;;;9.25;100.00;101004.66;5036329;28;20087;-76
2023/10/09 02:47:31;;;;;;;7.38;2.92;;;;;;;9.32;100.00;101003.59;5051565;28;20068;-76
2023/10/09 02:50:06;;;;;;;6.43;2.72;;;;;;;9.33;100.00;101007.25;5051925;28;20033;-76
2023/10/09 02:52:40;;;;;;;4.55;2.53;;;;;;;9.33;100.00;100990.13;5052937;28;20104;-77
2023/10/09 02:55:24;;;;;;;5.15;2.70;;;;;;;9.34;100.00;100989.66;5053234;28;20082;-76
2023/10/09 02:58:05;;;;;;;5.70;2.53;;;;;;;9.36;100.00;100980.63;5065363;28;20099;-77
2023/10/09 03:00:35;;;;;;;5.25;2.45;;;;;;;9.37;100.00;100988.72;5061363;28;20040;-76
2023/10/09 03:03:06;;;;;;;7.00;2.45;;;;;;;9.39;100.00;100993.97;5076737;28;20080;-78
2023/10/09 03:05:42;;;;;;;8.68;3.05;;;;;;;9.41;100.00;101000.78;5059351;28;20082;-76
2023/10/09 03:08:08;;;;;;;5.85;2.38;;;;;;;9.39;100.00;100989.06;5076470;28;20024;-77
2023/10/09 03:10:36;;;;;;;6.47;2.90;;;;;;;9.41;100.00;100997.94;5076476;28;20489;-76
2023/10/09 03:13:05;;;;;;;6.70;2.35;;;;;;;9.45;100.00;100994.94;5076964;28;20020;-77
2023/10/09 03:15:36;;;;;;;4.13;2.13;;;;;;;9.48;100.00;100989.09;5076421;28;20502;-77
2023/10/09 03:18:04;;;;;;;4.70;2.38;;;;;;;9.48;100.00;100980.53;5058658;28;20374;-77
2023/10/09 03:20:31;;;;;;;4.32;2.50;;;;;;;9.49;100.00;100982.13;5058559;28;20021;-76
2023/10/09 03:22:57;;;;;;;5.68;2.50;;;;;;;9.40;100.00;100967.00;5075566;28;20029;-75
2023/10/09 03:25:24;;;;;;;5.60;2.90;;;;;;;9.53;100.00;100988.50;5076612;28;20032;-76
2023/10/09 03:27:52;;;;;;;5.93;2.63;;;;;;;9.56;100.00;100983.88;5075096;28;20033;-77
2023/10/09 03:30:23;;;;;;;8.02;2.72;;;;;;;9.53;100.00;100971.38;5076523;28;20562;-76
2023/10/09 03:32:51;;;;;;;5.43;2.40;;;;;;;9.53;100.00;100979.13;5042032;28;20020;-77
2023/10/09 03:35:27;;;;;;;4.22;1.98;;;;;;;9.50;100.00;100966.59;5075383;28;20420;-76
2023/10/09 03:38:02;;;;;;;5.15;2.10;;;;;;;9.49;100.00;100972.78;5058356;28;20078;-77
2023/10/09 03:40:32;;;;;;;5.95;2.00;;;;;;;9.47;100.00;100961.84;5076637;28;20028;-77
2023/10/09 03:43:01;;;;;;;5.40;2.08;;;;;;;9.46;100.00;100957.38;5074868;28;20033;-77
2023/10/09 03:45:35;;;;;;;5.00;2.17;;;;;;;9.46;100.00;100948.03;5058580;28;20037;-76
2023/10/09 03:48:14;;;;;;;4.97;2.08;;;;;;;9.40;100.00;100939.28;5059553;28;20029;-77
2023/10/09 03:50:43;;;;;;;5.25;2.10;;;;;;;9.38;100.00;100938.19;5059450;28;20393;-76
2023/10/09 03:53:12;;;;;;;3.58;2.28;;;;;;;9.32;100.00;100920.88;5076606;28;20029;-76
2023/10/09 03:55:40;;;;;;;6.10;2.08;;;;;;;9.25;100.00;100915.47;5074958;28;20036;-74
2023/10/09 03:58:11;;;;;;;3.85;2.15;;;;;;;9.15;100.00;100906.06;5071150;28;20061;-76
2023/10/09 04:00:44;;;;;;;5.33;1.93;;;;;;;9.07;100.00;100901.13;5055527;28;20041;-76
2023/10/09 04:03:11;;;;;;;5.78;2.33;;;;;;;8.97;100.00;100897.44;5077476;28;20283;-76
2023/10/09 04:05:42;;;;;;;3.85;2.25;;;;;;;8.88;100.00;100888.84;5060648;28;20359;-79
2023/10/09 04:08:16;;;;;;;5.13;2.53;;;;;;;8.79;100.00;100886.75;5077384;28;20037;-76
2023/10/09 04:10:43;;;;;;;4.82;2.03;;;;;;;8.70;100.00;100885.91;5073553;28;20037;-78
2023/10/09 04:13:32;;;;;;;4.53;1.80;;;;;;;8.65;100.00;100883.66;5075833;28;20048;-77
2023/10/09 04:16:08;;;;;;;4.57;1.38;;;;;;;8.46;100.00;100868.47;5073495;28;20024;-76
2023/10/09 04:18:38;;;;;;;4.07;1.77;;;;;;;8.48;100.00;100865.19;5064251;28;20029;-76
2023/10/09 04:21:48;;;;;;;4.38;2.38;;;;;;;8.43;100.00;100865.78;5059904;28;20108;-76
2023/10/09 04:26:48;;;;;;;8.88;2.20;;;;;;;8.31;100.00;100865.38;5055422;28;20039;-76
2023/10/09 04:30:00;;;;;;;3.63;1.95;;;;;;;8.28;100.00;100862.66;5055546;28;20021;-76
2023/10/09 04:32:15;;;;;;;3.33;1.35;;;;;;;8.23;100.00;100849.81;5055125;28;20109;-77
2023/10/09 04:35:22;;;;;;;6.35;1.98;;;;;;;8.21;100.00;100854.41;5054099;28;20044;-77
2023/10/09 04:37:52;;;;;;;3.80;1.77;;;;;;;8.18;100.00;100858.16;5055371;28;20331;-77
2023/10/09 04:43:07;;;;;;;3.88;1.80;;;;;;;8.12;100.00;100857.13;5055043;28;20036;-75
2023/10/09 04:46:06;;;;;;;4.95;1.75;;;;;;;8.12;100.00;100869.31;5054161;28;20112;-74
2023/10/09 04:48:33;;;;;;;3.63;1.60;;;;;;;8.15;100.00;100873.31;5039860;28;20441;-75
2023/10/09 04:53:50;;;;;;;3.60;1.90;;;;;;;8.19;100.00;100877.63;5054228;28;20098;-75
2023/10/09 04:56:16;;;;;;;5.05;1.48;;;;;;;8.27;100.00;100892.41;5055029;28;20028;-76
2023/10/09 04:58:44;;;;;;;4.35;2.03;;;;;;;8.30;100.00;100900.81;5053556;28;20060;-76
2023/10/09 05:01:17;;;;;;;2.35;1.50;;;;;;;8.32;100.00;100897.50;5055109;28;20474;-77
2023/10/09 05:03:43;;;;;;;4.13;1.80;;;;;;;8.39;100.00;100900.88;5054992;28;20459;-76
2023/10/09 05:09:12;;;;;;;4.43;1.58;;;;;;;8.47;100.00;100894.91;5042550;28;20041;-77
2023/10/09 05:11:59;;;;;;;5.78;1.85;;;;;;;8.43;100.00;100885.72;5053817;28;20039;-76
2023/10/09 05:14:38;;;;;;;3.47;1.70;;;;;;;8.47;100.00;100889.22;5055128;28;20488;-76
2023/10/09 05:17:09;;;;;;;8.25;1.85;;;;;;;8.45;100.00;100886.84;5057134;28;20029;-78
2023/10/09 05:19:54;;;;;;;5.43;1.83;;;;;;;8.45;100.00;100894.59;5058743;28;20112;-83
2023/10/09 05:23:23;;;;;;;4.18;2.30;;;;;;;8.43;100.00;100882.88;5075032;28;20031;-79
2023/10/09 05:25:39;;;;;;;6.45;2.65;;;;;;;8.44;100.00;100873.88;5061008;28;20035;-79
2023/10/09 05:28:25;;;;;;;5.30;1.85;;;;;;;8.46;100.00;100881.94;5073581;28;20036;-81
2023/10/09 05:30:55;;;;;;;4.60;1.90;;;;;;;8.33;100.00;100856.38;5074418;28;20032;-81
2023/10/09 05:33:29;;;;;;;;;;;;;;;8.45;100.00;100883.22;5074322;28;20016;-82
2023/10/09 05:38:46;;;;;;;2.42;1.75;;;;;;;8.38;100.00;100865.13;5074363;28;20044;-82
2023/10/09 05:47:22;;;;;;;5.25;1.90;;;;;;;8.29;100.00;100847.19;5086136;28;20066;-83
2023/10/09 05:49:54;;;;;;;4.40;1.63;;;;;;;8.27;100.00;100847.63;5073569;28;20035;-84
2023/10/09 06:03:25;;;;;;;6.13;2.10;;;;;;;8.20;100.00;100818.66;5075342;28;20492;-85
2023/10/09 06:06:07;;;;;;;8.02;2.08;;;;;;;8.23;100.00;100812.81;5074024;28;20029;-83
2023/10/09 06:22:56;;;;;;;5.68;2.28;;;;;;;8.27;100.00;100779.31;5039124;28;20041;-79
2023/10/09 06:25:26;;;;;;;4.53;2.47;;;;;;;8.27;100.00;100765.06;5075565;28;20059;-79
2023/10/09 06:27:58;;;;;;;3.08;2.50;;;;;;;8.25;100.00;100761.13;5074759;28;20036;-81
2023/10/09 06:30:25;;;;;;;3.35;2.15;;;;;;;8.25;100.00;100747.69;5073982;28;20307;-79
2023/10/09 06:32:57;;;;;;;6.85;2.65;;;;;;;8.27;100.00;100744.34;5070643;28;20024;-80
2023/10/09 06:35:32;;;;;;;;;;;;;;;8.26;100.00;100739.94;5073314;28;20032;-82
2023/10/09 06:59:24;;;;;;;4.70;2.50;;;;;;;8.19;100.00;100718.22;5053373;28;20045;-79
2023/10/09 07:03:12;;;;;;;5.45;2.75;;;;;;;8.29;100.00;100741.84;5052279;28;20051;-80
2023/10/09 07:05:10;;;;;;;8.73;3.33;;;;;;;8.31;100.00;100733.63;5051766;28;20070;-84
2023/10/09 07:07:50;;;;;;;10.77;3.83;;;;;;;8.25;100.00;100707.03;5057148;28;20029;-84
2023/10/09 07:10:32;;;;;;;5.88;3.30;;;;;;;8.23;100.00;100704.63;5057231;28;20089;-86
2023/10/09 07:13:01;;;;;;;4.50;2.28;;;;;;;8.38;100.00;100717.06;5057325;28;20021;-82
2023/10/09 07:18:23;;;;;;;6.40;2.60;;;;;;;8.50;100.00;100718.22;5044235;28;20044;-82
2023/10/09 07:21:01;;;;;;;7.32;3.65;;;;;;;8.53;100.00;100713.63;5046355;28;20416;-82
2023/10/09 07:23:32;;;;;;;5.45;3.25;;;;;;;8.59;100.00;100703.22;5052598;28;20021;-80
2023/10/09 07:26:17;;;;;;;8.40;3.10;;;;;;;8.61;100.00;100695.75;5052717;28;20082;-82
2023/10/09 07:28:48;;;;;;;6.88;3.50;;;;;;;8.53;100.00;100677.41;5052883;28;20381;-81
2023/10/09 07:31:24;;;;;;;6.15;3.70;;;;;;;8.64;100.00;100671.25;5052228;28;20078;-80
2023/10/09 07:33:56;;;;;;;5.95;3.53;;;;;;;8.72;100.00;100701.03;5052785;28;20044;-79
2023/10/09 07:36:37;;;;;;;7.13;3.22;;;;;;;8.70;100.00;100684.41;5051603;28;20036;-79
2023/10/09 07:39:17;;;;;;;6.15;3.40;;;;;;;8.83;100.00;100701.38;5066628;28;20115;-79
2023/10/09 07:42:01;;;;;;;12.10;3.83;;;;;;;8.88;100.00;100686.50;5072555;28;20078;-81
2023/10/09 07:44:38;;;;;;;6.43;3.17;;;;;;;8.93;100.00;100693.63;5060044;28;20135;-85
2023/10/09 07:49:59;;;;;;;4.90;2.72;;;;;;;8.98;100.00;100693.81;5077110;28;20105;-81
2023/10/09 07:52:26;;;;;;;6.70;3.30;;;;;;;9.01;100.00;100692.06;5080389;28;20481;-80
2023/10/09 07:55:02;;;;;;;8.50;2.95;;;;;;;9.07;100.00;100696.66;5064153;28;20025;-80
2023/10/09 07:57:38;;;;;;;7.13;3.78;;;;;;;8.95;100.00;100674.81;5073540;28;20109;-84
2023/10/09 08:00:36;;;;;;;9.93;5.00;;;;;;;9.08;100.00;100674.66;5099853;28;20047;-78
2023/10/09 08:03:00;;;;;;;7.80;3.60;;;;;;;8.95;100.00;100643.47;5089669;28;20516;-80
2023/10/09 08:05:33;;;;;;;9.32;3.38;;;;;;;9.20;100.00;100668.00;5095416;28;20111;-79
2023/10/09 08:08:39;;;;;;;6.63;3.17;;;;;;;9.29;100.00;100675.78;5099432;28;20023;-77
2023/10/09 08:16:41;;;;;;;7.10;3.47;;;;;;;9.56;100.00;100672.91;5054376;28;20037;-79
2023/10/09 08:19:32;;;;;;;5.70;2.85;;;;;;;9.64;100.00;100682.75;5053666;28;20036;-78
2023/10/09 08:22:52;;;;;;;5.50;3.25;;;;;;;9.73;100.00;100677.06;5053980;28;20159;-79
2023/10/09 08:24:57;;;;;;;6.63;2.78;;;;;;;9.66;100.00;100641.03;5068051;28;20036;-79
2023/10/09 08:32:43;;;;;;;6.78;2.83;;;;;;;9.91;100.00;100617.06;5118893;28;20027;-80
2023/10/09 08:37:58;;;;;;;7.65;3.42;;;;;;;10.09;100.00;100617.00;5119653;28;20103;-81
2023/10/09 08:40:41;;;;;;;5.25;2.22;;;;;;;10.22;100.00;100622.50;5114489;28;20394;-80
2023/10/09 08:43:17;;;;;;;4.65;1.90;;;;;;;10.32;100.00;100624.03;5098047;28;20028;-80
2023/10/09 08:46:00;;;;;;;5.35;1.90;;;;;;;10.33;100.00;100622.78;5079419;28;20028;-82
2023/10/09 08:48:31;;;;;;;4.25;2.22;;;;;;;10.36;100.00;100618.16;5095917;28;20028;-84
2023/10/09 08:50:56;;;;;;;2.67;1.63;;;;;;;10.35;100.00;100608.00;5096091;28;20024;-81
2023/10/09 08:53:23;;;;;;;4.05;2.00;;;;;;;10.33;100.00;100622.78;5094708;28;20093;-81
2023/10/09 08:56:04;;;;;;;2.83;1.65;;;;;;;10.28;100.00;100614.88;5095819;28;20032;-81
2023/10/09 08:58:36;;;;;;;8.15;2.00;;;;;;;10.16;100.00;100589.38;5095150;28;20040;-81
2023/10/09 09:01:04;;;;;;;2.83;1.80;;;;;;;10.36;100.00;100604.66;5095014;28;20043;-83
2023/10/09 09:03:43;;;;;;;3.08;1.85;;;;;;;10.37;100.00;100606.25;5097203;28;20024;-84
2023/10/09 09:06:09;;;;;;;1.58;1.33;;;;;;;10.32;100.00;100612.63;5097168;28;20370;-84
2023/10/09 09:08:37;;;;;;;2.10;1.40;;;;;;;10.28;100.00;100611.22;5095386;28;20062;-83
2023/10/09 09:11:12;;;;;;;1.52;1.05;;;;;;;10.18;100.00;100616.19;5094053;28;20056;-81
2023/10/09 09:13:41;;;;;;;2.10;1.60;;;;;;;10.06;100.00;100622.88;5095685;28;20602;-81
2023/10/09 09:16:17;;;;;;;4.85;1.75;;;;;;;10.04;100.00;100623.34;5094801;28;20059;-81
2023/10/09 09:19:04;;;;;;;3.40;1.80;;;;;;;9.98;100.00;100641.63;5094135;28;20461;-80
2023/10/09 09:21:54;;;;;;;4.47;2.13;;;;;;;9.88;100.00;100632.31;5094515;28;20028;-81
2023/10/09 09:29:52;;;;;;;3.83;1.50;;;;;;;9.75;100.00;100642.31;5094735;28;20329;-83
2023/10/09 09:32:39;;;;;;;3.63;1.65;;;;;;;9.84;100.00;100645.94;5079269;28;20088;-84
2023/10/09 09:35:19;;;;;;;4.35;1.50;;;;;;;9.85;100.00;100641.03;5079300;28;20358;-85
2023/10/09 09:37:54;;;;;;;2.85;1.75;;;;;;;9.83;100.00;100632.16;5069003;28;20028;-89
2023/10/09 09:40:30;;;;;;;2.83;1.55;;;;;;;9.85;100.00;100629.59;5097235;28;20043;-84
2023/10/09 09:43:04;;;;;;;2.75;1.45;;;;;;;9.82;100.00;100622.81;5095266;28;20023;-84
2023/10/09 09:45:48;;;;;;;1.50;1.40;;;;;;;9.88;100.00;100626.59;5093572;28;20063;-87
2023/10/09 09:48:16;;;;;;;2.80;1.20;;;;;;;9.90;100.00;100634.66;5078601;28;20031;-87
2023/10/09 09:50:44;;;;;;;2.03;1.45;;;;;;;9.94;100.00;100641.78;5095500;28;20108;-86
2023/10/09 09:53:25;;;;;;;2.90;1.23;;;;;;;9.98;100.00;100628.16;5076142;28;20097;-87
2023/10/09 09:55:57;;;;;;;3.75;1.17;;;;;;;10.00;100.00;100614.16;5076382;28;20111;-88
2023/10/09 09:58:44;;;;;;;5.88;1.45;;;;;;;10.01;100.00;100620.69;5076730;28;20044;-86
2023/10/09 10:01:56;;;;;;;7.40;2.10;;;;;;;10.06;100.00;100626.53;5077977;28;20028;-87
2023/10/09 10:04:20;;;;;;;3.22;1.80;;;;;;;10.17;100.00;100622.38;5078131;28;20391;-85
2023/10/09 10:06:48;;;;;;;3.28;1.92;;;;;;;10.24;100.00;100622.78;5094457;28;20036;-83
2023/10/09 10:09:44;;;;;;;4.05;2.05;;;;;;;10.25;100.00;100607.25;5064875;28;20044;-81
2023/10/09 10:12:11;;;;;;;3.03;2.30;;;;;;;10.24;100.00;100594.22;5076705;28;20031;-83
2023/10/09 10:15:14;;;;;;;2.53;1.80;;;;;;;10.26;100.00;100577.41;5075840;28;20556;-83
2023/10/09 10:18:03;;;;;;;1.63;1.45;;;;;;;10.26;100.00;100576.63;5094397;28;20057;-86
2023/10/09 10:21:00;;;;;;;5.68;1.67;;;;;;;10.20;100.00;100573.63;5081657;28;20028;-86
2023/10/09 10:23:32;;;;;;;3.65;1.85;;;;;;;10.27;100.00;100584.72;5099831;28;20028;-86
2023/10/09 10:26:21;;;;;;;4.63;1.83;;;;;;;10.31;100.00;100590.25;5066139;28;20036;-84
2023/10/09 10:29:32;;;;;;;3.08;1.83;;;;;;;10.36;100.00;100590.38;5063088;28;20457;-87
2023/10/09 10:32:11;;;;;;;5.38;2.20;;;;;;;10.34;100.00;100577.84;5079918;28;20111;-86
2023/10/09 10:35:06;;;;;;;3.40;1.92;;;;;;;10.46;100.00;100586.19;5075358;28;20039;-82
2023/10/09 10:40:46;;;;;;;2.78;1.77;;;;;;;10.63;100.00;100583.69;5095073;28;20051;-85
2023/10/09 10:43:32;;;;;;;5.75;2.10;;;;;;;10.72;100.00;100592.22;5091086;28;20028;-82
2023/10/09 10:46:04;;;;;;;3.38;1.83;;;;;;;10.75;100.00;100587.59;5093537;28;20496;-79
2023/10/09 10:48:49;;;;;;;1.55;1.15;;;;;;;10.80;100.00;100586.91;5075654;28;20028;-80
2023/10/09 10:51:21;;;;;;;3.92;1.60;;;;;;;10.85;100.00;100591.97;5075565;28;20039;-81
2023/10/09 10:53:57;;;;;;;1.52;1.20;;;;;;;10.90;100.00;100582.72;5094070;28;20617;-83
2023/10/09 10:56:35;;;;;;;2.83;1.20;;;;;;;10.95;100.00;100582.03;5058822;28;20039;-84
2023/10/09 11:04:39;;;;;;;2.58;1.70;;;;;;;11.05;100.00;100577.03;5089910;28;20566;-82
2023/10/09 11:12:44;;;;;;;2.15;1.95;;;;;;;11.00;100.00;100564.19;5079547;28;20119;-83
2023/10/09 11:15:46;;;;;;;3.88;1.27;;;;;;;11.06;100.00;100581.47;5094198;28;20020;-83
2023/10/09 11:18:20;;;;;;;3.20;1.47;;;;;;;11.01;100.00;100573.56;5094385;28;20027;-80
2023/10/09 11:23:38;;;;;;;3.03;1.38;;;;;;;11.13;100.00;100575.38;5084153;28;20028;-88
2023/10/09 11:32:24;;;;;;;2.75;1.33;;;;;;;11.63;100.00;100559.16;5056103;28;20066;-87
2023/10/09 11:35:15;;;;;;;2.72;1.77;;;;;;;11.67;100.00;100556.88;5098430;28;20484;-84
2023/10/09 11:37:44;;;;;;;4.05;2.28;;;;;;;11.64;100.00;100552.94;5099279;28;20020;-85
2023/10/09 11:43:50;;;;;;;2.55;1.40;;;;;;;11.77;100.00;100562.00;5081247;28;20035;-86
2023/10/09 11:46:36;;;;;;;2.65;1.50;;;;;;;11.78;100.00;100539.88;5081255;28;20039;-83
2023/10/09 11:54:35;;;;;;;3.08;1.60;;;;;;;12.42;100.00;100547.66;5100160;28;19908;-81
2023/10/09 11:57:03;;;;;;;1.88;1.48;;;;;;;12.36;100.00;100546.75;5096667;28;20048;-82
2023/10/09 11:59:37;;;;;;;2.55;1.67;;;;;;;12.48;100.00;100551.38;5082615;28;20073;-87
2023/10/09 12:02:12;;;;;;;2.70;1.40;;;;;;;12.39;100.00;100540.06;5068413;28;20032;-84
2023/10/09 12:04:58;;;;;;;1.63;1.40;;;;;;;12.52;100.00;100552.75;5083223;28;20109;-81
2023/10/09 12:07:26;;;;;;;5.60;1.55;;;;;;;12.60;100.00;100564.59;5083819;28;20529;-81
2023/10/09 12:09:56;;;;;;;2.35;1.40;;;;;;;12.64;100.00;100540.16;5100254;28;20354;-85
2023/10/09 12:12:26;;;;;;;2.85;1.63;;;;;;;12.78;100.00;100546.31;5078182;28;20034;-83
2023/10/09 12:15:17;;;;;;;3.60;1.92;;;;;;;12.83;100.00;100554.97;5080265;28;20043;-83
2023/10/09 12:17:56;;;;;;;3.80;1.73;;;;;;;12.84;100.00;100545.09;5094689;28;20039;-81
2023/10/09 12:20:36;;;;;;;3.25;1.88;;;;;;;12.83;100.00;100559.94;5077932;28;20028;-80
2023/10/09 12:23:23;;;;;;;4.40;2.35;;;;;;;12.79;100.00;100537.22;5093650;28;20082;-85
2023/10/09 12:25:50;;;;;;;3.35;1.63;;;;;;;12.88;100.00;100545.66;5096224;28;20157;-81
2023/10/09 12:28:20;;;;;;;2.53;1.73;;;;;;;12.84;100.00;100547.16;5077972;28;20032;-83
2023/10/09 12:30:50;;;;;;;3.10;2.13;;;;;;;12.74;100.00;100543.66;5062611;28;20032;-82
2023/10/09 12:33:39;;;;;;;2.97;2.47;;;;;;;12.67;100.00;100550.63;5068407;28;20047;-85
2023/10/09 12:36:17;;;;;;;2.33;1.73;;;;;;;12.62;100.00;100539.06;5100385;28;20016;-82
2023/10/09 12:38:59;;;;;;;3.83;1.92;;;;;;;12.65;100.00;100538.09;5086976;28;20038;-79
2023/10/09 12:41:26;;;;;;;2.78;1.98;;;;;;;12.70;100.00;100529.53;5103416;28;20101;-83
2023/10/09 12:43:55;;;;;;;2.65;2.17;;;;;;;12.73;100.00;100535.56;5098477;28;20047;-82
2023/10/09 12:46:25;;;;;;;3.90;2.70;;;;;;;12.70;100.00;100520.91;5102063;28;20028;-78
2023/10/09 12:48:55;;;;;;;3.88;2.50;;;;;;;12.63;100.00;100532.84;5102173;28;20051;-81
2023/10/09 12:51:25;;;;;;;3.35;2.42;;;;;;;12.60;100.00;100521.59;5086057;28;20062;-81
2023/10/09 12:54:09;;;;;;;2.22;1.75;;;;;;;12.53;100.00;100511.34;5119602;28;20036;-88
2023/10/09 12:56:39;;;;;;;5.22;3.00;;;;;;;12.47;100.00;100519.06;5120263;28;20020;-84
2023/10/09 12:59:06;;;;;;;3.75;3.00;;;;;;;12.40;100.00;100518.72;5099817;28;20072;-83
2023/10/09 13:01:42;;;;;;;4.90;2.20;;;;;;;12.44;100.00;100520.09;5065170;28;20054;-81
2023/10/09 13:04:15;;;;;;;8.45;2.97;;;;;;;12.49;100.00;100518.56;5074817;28;20428;-78
2023/10/09 13:06:46;;;;;;;3.78;2.90;;;;;;;12.48;100.00;100522.72;5075358;28;20024;-79
2023/10/09 13:09:14;;;;;;;3.42;2.95;;;;;;;12.44;100.00;100530.75;5072955;28;20063;-82
2023/10/09 13:11:40;;;;;;;5.93;4.10;;;;;;;12.41;100.00;100528.88;5058315;28;20039;-81
2023/10/09 13:14:23;;;;;;;4.10;3.15;;;;;;;12.30;100.00;100520.13;5075923;28;20059;-80
2023/10/09 13:16:56;;;;;;;4.88;3.33;;;;;;;12.47;100.00;100547.72;5073502;28;20024;-81
2023/10/09 13:19:24;;;;;;;3.13;2.45;;;;;;;12.56;100.00;100541.06;5074874;28;20053;-85
2023/10/09 13:21:50;;;;;;;3.78;2.88;;;;;;;12.63;100.00;100540.66;5076313;28;20029;-81
2023/10/09 13:24:24;;;;;;;4.55;2.83;;;;;;;12.64;100.00;100540.16;5074545;28;20401;-80
2023/10/09 13:26:52;;;;;;;5.20;2.92;;;;;;;12.62;100.00;100534.13;5073458;28;20071;-81
2023/10/09 13:29:41;;;;;;;4.53;2.58;;;;;;;12.64;100.00;100533.63;5073264;28;20024;-79
2023/10/09 13:32:14;;;;;;;3.55;2.47;;;;;;;12.60;100.00;100525.22;5072896;28;20028;-82
2023/10/09 13:34:46;;;;;;;3.33;2.97;;;;;;;12.56;100.00;100521.78;5058610;28;20039;-84
2023/10/09 13:37:21;;;;;;;5.85;3.35;;;;;;;12.54;100.00;100512.91;5074656;28;20056;-84
2023/10/09 13:39:56;;;;;;;5.15;3.60;;;;;;;12.52;100.00;100504.03;5059946;28;20461;-80
2023/10/09 13:42:25;;;;;;;4.50;2.97;;;;;;;12.54;100.00;100503.53;5067958;28;20533;-84
2023/10/09 13:45:04;;;;;;;4.40;2.78;;;;;;;12.54;100.00;100503.53;5074567;28;20380;-80
2023/10/09 13:47:50;;;;;;;5.32;2.83;;;;;;;12.54;100.00;100504.31;5079260;28;20033;-85
2023/10/09 13:50:15;;;;;;;6.03;2.78;;;;;;;12.51;100.00;100504.50;5076274;28;20518;-83
2023/10/09 13:52:43;;;;;;;6.80;3.13;;;;;;;12.47;100.00;100510.47;5074764;28;20033;-86
2023/10/09 13:55:16;;;;;;;3.92;3.08;;;;;;;12.34;100.00;100501.41;5074351;28;20025;-80
2023/10/09 13:57:45;;;;;;;4.57;2.95;;;;;;;12.34;100.00;100510.00;5082355;28;20055;-81
2023/10/09 14:00:32;;;;;;;4.78;3.15;;;;;;;12.31;100.00;100518.84;5094451;28;20099;-86
2023/10/09 14:03:03;;;;;;;6.88;4.18;;;;;;;12.23;100.00;100496.31;5093596;28;20329;-81
2023/10/09 14:05:33;;;;;;;5.43;3.60;;;;;;;12.25;100.00;100499.47;5076434;28;20604;-82
2023/10/09 14:08:06;;;;;;;5.85;3.97;;;;;;;12.28;100.00;100504.19;5091461;28;20040;-82
2023/10/09 14:10:32;;;;;;;6.45;3.60;;;;;;;12.17;100.00;100480.31;5092753;28;20066;-78
2023/10/09 14:13:00;;;;;;;7.20;4.10;;;;;;;12.24;100.00;100503.63;5092963;28;20028;-84
2023/10/09 14:15:30;;;;;;;4.80;3.28;;;;;;;12.30;100.00;100512.31;5098794;28;20032;-82
2023/10/09 14:17:56;;;;;;;5.57;2.90;;;;;;;12.29;100.00;100519.31;5062374;28;20118;-81
2023/10/09 14:20:31;;;;;;;5.07;3.72;;;;;;;12.25;100.00;100516.69;5082596;28;20115;-89
2023/10/09 14:23:06;;;;;;;5.10;3.92;;;;;;;12.25;100.00;100531.00;5093798;28;20141;-77
2023/10/09 14:25:43;;;;;;;6.93;3.15;;;;;;;12.23;100.00;100535.63;5091319;28;20036;-79